createdAt,value
2019-04-05T00:10:19.340Z,49.40
2019-04-05T00:25:19.387Z,49.60
2019-04-05T00:40:19.785Z,49.63
2019-04-05T00:55:20.217Z,49.33
2019-04-05T01:10:20.659Z,49.13
2019-04-05T01:25:20.838Z,49.35
2019-04-05T01:40:21.258Z,49.76
2019-04-05T01:55:21.580Z,49.35
2019-04-05T02:10:21.915Z,49.65
2019-04-05T02:25:22.293Z,49.35
2019-04-05T02:40:22.377Z,49.85
2019-04-05T02:55:22.474Z,50.18
2019-04-05T03:10:22.566Z,49.68
2019-04-05T03:25:22.609Z,50.08
2019-04-05T03:40:22.710Z,49.88
2019-04-05T03:55:22.813Z,49.88
2019-04-05T04:10:22.934Z,50.78
2019-04-05T04:25:23.017Z,49.48
2019-04-05T04:40:23.098Z,50.08
2019-04-05T04:55:23.190Z,50.20
2019-04-05T05:10:23.326Z,49.48
2019-04-05T05:25:23.393Z,50.08
2019-04-05T05:40:34.018Z,49.48
2019-04-05T05:55:30.215Z,49.37
2019-04-05T06:10:30.425Z,50.08
2019-04-05T06:25:30.865Z,50.15
2019-04-05T06:40:40.835Z,50.15
2019-04-05T06:55:36.827Z,49.73
2019-04-05T07:10:37.227Z,48.63
2019-04-05T07:25:37.461Z,48.72
2019-04-05T07:40:37.770Z,48.30
2019-04-05T07:55:38.231Z,48.50
2019-04-05T08:10:38.345Z,48.10
2019-04-05T08:25:41.267Z,49.28
2019-04-05T08:40:41.738Z,48.68
2019-04-05T08:55:41.957Z,48.58
2019-04-05T09:10:42.225Z,46.85
2019-04-05T09:25:42.376Z,46.28
2019-04-05T09:40:42.655Z,45.64
2019-04-05T09:55:42.934Z,44.29
2019-04-05T10:10:43.078Z,43.65
2019-04-05T10:25:44.059Z,44.31
2019-04-05T10:40:44.392Z,42.79
2019-04-05T10:55:44.566Z,42.40
2019-04-05T11:10:44.708Z,42.71
2019-04-05T11:25:44.819Z,42.83
2019-04-05T11:40:44.978Z,43.33
2019-04-05T11:55:46.784Z,43.55
2019-04-05T12:10:47.213Z,43.65
2019-04-05T12:25:47.330Z,44.25
2019-04-05T12:40:47.430Z,44.21
2019-04-05T12:55:47.536Z,44.32
2019-04-05T13:10:48.062Z,41.24
2019-04-05T13:25:48.610Z,39.75
2019-04-05T13:40:48.705Z,37.89
2019-04-05T13:55:48.785Z,38.19
2019-04-05T14:10:48.906Z,39.29
2019-04-05T14:25:49.086Z,39.85
2019-04-05T14:40:49.270Z,41.26
2019-04-05T14:55:49.393Z,41.77
2019-04-05T15:10:51.334Z,41.60
2019-04-05T15:25:51.601Z,42.35
2019-04-05T15:40:52.076Z,42.47
2019-04-05T15:55:52.156Z,43.59
2019-04-05T16:10:52.310Z,43.71
2019-04-05T16:25:52.379Z,45.24
2019-04-05T16:40:52.473Z,44.35
2019-04-05T16:55:52.689Z,44.17
2019-04-05T17:10:53.160Z,43.79
2019-04-05T17:25:53.285Z,43.73
2019-04-05T17:40:53.903Z,43.95
2019-04-05T17:55:54.202Z,44.25
2019-04-05T18:10:54.307Z,45.07
2019-04-05T18:25:54.384Z,45.67
2019-04-05T18:40:54.468Z,46.00
2019-04-05T18:55:54.685Z,46.01
2019-04-05T19:10:54.680Z,47.64
2019-04-05T19:25:54.778Z,48.34
2019-04-05T19:55:59.929Z,49.29
2019-04-05T20:11:00.045Z,49.89
2019-04-05T20:26:00.145Z,50.39
2019-04-05T20:41:00.245Z,50.62
2019-04-05T20:56:00.305Z,51.01
2019-04-05T21:11:00.361Z,51.42
2019-04-05T21:26:00.501Z,51.14
2019-04-05T21:41:00.571Z,51.92
2019-04-05T21:56:00.645Z,52.14
2019-04-05T22:11:00.797Z,52.04
2019-04-05T22:26:00.871Z,51.54
2019-04-05T22:41:00.961Z,51.37
2019-04-05T22:56:01.051Z,51.26
2019-04-05T23:11:01.093Z,51.17
2019-04-05T23:26:01.171Z,51.59
2019-04-05T23:41:01.345Z,51.59
2019-04-05T23:56:01.490Z,51.39
